createdAt,value
2023-03-31T00:02:13.491Z,2.40
2023-03-31T00:04:52.644Z,2.60
2023-03-31T00:07:22.366Z,2.73
2023-03-31T00:09:50.108Z,2.47
2023-03-31T00:12:18.738Z,3.00
2023-03-31T00:14:46.256Z,2.70
2023-03-31T00:17:13.994Z,3.13
2023-03-31T00:19:41.840Z,2.90
2023-03-31T00:22:09.509Z,2.80
2023-03-31T00:24:37.685Z,2.70
2023-03-31T00:27:05.838Z,2.93
2023-03-31T00:29:35.813Z,2.87
2023-03-31T00:32:03.416Z,2.70
2023-03-31T00:34:31.058Z,3.07
2023-03-31T00:37:02.867Z,3.10
2023-03-31T00:39:32.313Z,3.70
2023-03-31T00:41:59.571Z,2.70
2023-03-31T00:44:30.139Z,3.87
2023-03-31T00:47:02.311Z,2.70
2023-03-31T00:49:34.720Z,2.80
2023-03-31T00:52:07.993Z,2.77
2023-03-31T00:54:37.065Z,3.67
2023-03-31T00:57:06.726Z,2.90
2023-03-31T00:59:37.211Z,3.10
2023-03-31T01:02:06.191Z,3.47
2023-03-31T01:04:38.732Z,3.53
2023-03-31T01:07:10.250Z,2.90
2023-03-31T01:09:38.700Z,2.93
2023-03-31T01:12:09.351Z,2.77
2023-03-31T01:14:37.166Z,3.90
2023-03-31T01:17:05.447Z,3.50
2023-03-31T01:19:43.328Z,3.87
2023-03-31T01:22:16.683Z,3.13
2023-03-31T01:25:01.734Z,2.60
2023-03-31T01:27:30.038Z,2.40
2023-03-31T01:30:00.503Z,2.77
2023-03-31T01:32:47.061Z,3.10
2023-03-31T01:35:27.754Z,3.03
2023-03-31T01:38:22.656Z,3.20
2023-03-31T01:41:08.669Z,3.33
2023-03-31T01:43:42.152Z,3.17
2023-03-31T01:46:09.721Z,2.87
2023-03-31T01:48:37.200Z,3.00
2023-03-31T01:51:16.493Z,3.67
2023-03-31T01:53:47.098Z,3.10
2023-03-31T01:56:19.369Z,3.90
2023-03-31T01:58:50.212Z,3.00
2023-03-31T02:01:21.149Z,3.20
2023-03-31T02:03:56.771Z,3.53
2023-03-31T02:06:26.377Z,6.80
2023-03-31T02:09:02.833Z,4.97
2023-03-31T02:11:33.069Z,3.73
2023-03-31T02:14:02.803Z,3.00
2023-03-31T02:16:34.227Z,3.70
2023-03-31T02:19:06.204Z,3.50
2023-03-31T02:21:35.430Z,3.17
2023-03-31T02:24:11.985Z,3.87
2023-03-31T02:26:45.661Z,3.60
2023-03-31T02:29:13.200Z,3.23
2023-03-31T02:31:42.153Z,3.00
2023-03-31T02:34:09.834Z,3.00
2023-03-31T02:36:38.988Z,2.90
2023-03-31T02:39:09.847Z,3.20
2023-03-31T02:41:37.263Z,2.93
2023-03-31T02:44:06.033Z,3.00
2023-03-31T02:46:33.641Z,3.00
2023-03-31T02:49:03.105Z,3.53
2023-03-31T02:51:39.662Z,3.17
2023-03-31T02:54:26.223Z,2.93
2023-03-31T02:57:14.539Z,3.33
2023-03-31T03:00:01.231Z,3.40
2023-03-31T03:02:49.833Z,3.70
2023-03-31T03:05:20.490Z,3.70
2023-03-31T03:08:24.940Z,2.93
2023-03-31T03:10:58.436Z,3.20
2023-03-31T03:13:36.893Z,3.80
2023-03-31T03:16:09.748Z,3.30
2023-03-31T03:18:37.586Z,3.00
2023-03-31T03:21:05.024Z,2.80
2023-03-31T03:23:33.407Z,3.00
2023-03-31T03:26:01.850Z,2.73
2023-03-31T03:28:29.431Z,2.80
2023-03-31T03:30:58.339Z,2.50
2023-03-31T03:33:25.626Z,3.30
2023-03-31T03:35:53.038Z,3.10
2023-03-31T03:38:21.565Z,4.40
2023-03-31T03:40:53.273Z,4.33
2023-03-31T03:43:21.144Z,3.10
2023-03-31T03:45:49.351Z,4.77
2023-03-31T03:48:16.673Z,3.43
2023-03-31T03:50:45.563Z,3.33
2023-03-31T03:53:15.004Z,3.07
2023-03-31T03:55:42.572Z,3.87
2023-03-31T03:58:10.072Z,3.93
2023-03-31T04:00:38.095Z,3.70
2023-03-31T04:03:05.877Z,4.07
2023-03-31T04:05:33.294Z,3.93
2023-03-31T04:08:01.645Z,3.80
2023-03-31T04:10:28.945Z,3.43
2023-03-31T04:12:57.194Z,4.73
2023-03-31T04:15:24.717Z,3.77
2023-03-31T04:17:54.757Z,4.50
2023-03-31T04:20:22.426Z,3.57
2023-03-31T04:22:50.992Z,3.80
2023-03-31T04:25:19.764Z,4.40
2023-03-31T04:27:54.724Z,4.20
2023-03-31T04:30:23.205Z,3.27
2023-03-31T04:32:52.119Z,3.30
2023-03-31T04:35:20.677Z,3.70
2023-03-31T04:37:52.338Z,3.33
2023-03-31T04:40:20.858Z,3.93
2023-03-31T04:42:48.169Z,3.50
2023-03-31T04:45:15.869Z,3.60
2023-03-31T04:47:44.080Z,4.00
2023-03-31T04:50:16.191Z,3.27
2023-03-31T04:52:44.523Z,2.97
2023-03-31T04:55:12.014Z,3.03
2023-03-31T04:57:39.308Z,4.03
2023-03-31T05:00:08.172Z,4.63
2023-03-31T05:02:36.596Z,3.90
2023-03-31T05:05:04.732Z,5.53
2023-03-31T05:07:32.405Z,6.13
2023-03-31T05:10:01.513Z,4.53
2023-03-31T05:12:31.075Z,4.60
2023-03-31T05:14:58.406Z,4.23
2023-03-31T05:17:25.646Z,2.70
2023-03-31T05:19:52.984Z,3.63
2023-03-31T05:22:20.692Z,4.73
2023-03-31T05:24:47.959Z,4.07
2023-03-31T05:27:17.965Z,4.33
2023-03-31T05:29:45.637Z,3.67
2023-03-31T05:32:12.790Z,3.47
2023-03-31T05:34:39.968Z,3.43
2023-03-31T05:37:07.131Z,2.60
2023-03-31T05:39:34.351Z,3.10
2023-03-31T05:42:01.594Z,3.20
2023-03-31T05:44:28.853Z,3.80
2023-03-31T05:46:56.357Z,2.97
2023-03-31T05:49:26.206Z,3.63
2023-03-31T05:51:53.386Z,4.43
2023-03-31T05:54:20.777Z,3.40
2023-03-31T05:56:47.959Z,4.20
2023-03-31T05:59:16.290Z,3.93
2023-03-31T06:01:45.230Z,3.90
2023-03-31T06:04:12.779Z,3.50
2023-03-31T06:06:40.010Z,3.90
2023-03-31T06:09:07.289Z,3.03
2023-03-31T06:11:34.905Z,3.37
2023-03-31T06:14:02.161Z,3.83
2023-03-31T06:16:29.621Z,3.33
2023-03-31T06:18:57.029Z,3.27
2023-03-31T06:21:24.234Z,4.27
2023-03-31T06:23:55.386Z,3.97
2023-03-31T06:26:23.499Z,3.83
2023-03-31T06:28:51.246Z,4.47
2023-03-31T06:31:22.904Z,5.00
2023-03-31T06:33:50.433Z,4.50
2023-03-31T06:36:18.745Z,4.33
2023-03-31T06:38:47.657Z,4.70
2023-03-31T06:41:15.498Z,5.87
2023-03-31T06:43:42.881Z,4.17
2023-03-31T06:46:10.846Z,3.50
2023-03-31T06:48:38.266Z,4.13
2023-03-31T06:51:07.500Z,5.57
2023-03-31T06:53:34.961Z,7.83
2023-03-31T06:56:02.717Z,5.53
2023-03-31T06:58:31.656Z,5.80
2023-03-31T07:01:00.351Z,5.50
2023-03-31T07:03:29.740Z,8.87
2023-03-31T07:05:58.688Z,8.73
2023-03-31T07:08:25.944Z,7.90
2023-03-31T07:10:58.771Z,7.33
2023-03-31T07:13:26.967Z,7.17
2023-03-31T07:15:54.613Z,7.80
2023-03-31T07:18:25.806Z,5.63
2023-03-31T07:20:53.310Z,5.43
2023-03-31T07:23:21.112Z,5.37
2023-03-31T07:25:48.821Z,4.97
2023-03-31T07:28:16.477Z,4.70
2023-03-31T07:30:43.810Z,4.97
2023-03-31T07:33:13.044Z,4.70
2023-03-31T07:35:40.918Z,5.47
2023-03-31T07:38:09.097Z,6.10
2023-03-31T07:40:36.396Z,6.37
2023-03-31T07:43:03.709Z,6.63
2023-03-31T07:45:30.961Z,7.20
2023-03-31T07:47:58.631Z,5.67
2023-03-31T07:50:26.190Z,6.60
2023-03-31T07:52:55.731Z,6.57
2023-03-31T07:55:23.644Z,6.77
2023-03-31T07:57:51.313Z,6.27
2023-03-31T08:00:21.081Z,5.30
2023-03-31T08:02:51.127Z,7.57
2023-03-31T08:05:19.784Z,5.90
2023-03-31T08:07:48.304Z,6.53
2023-03-31T08:10:17.665Z,8.13
2023-03-31T08:12:44.857Z,6.63
2023-03-31T08:15:12.245Z,7.20
2023-03-31T08:17:40.993Z,6.57
2023-03-31T08:20:10.033Z,5.93
2023-03-31T08:22:37.760Z,7.10
2023-03-31T08:25:05.731Z,7.10
2023-03-31T08:27:39.158Z,6.80
2023-03-31T08:30:07.389Z,6.60
2023-03-31T08:32:35.226Z,7.00
2023-03-31T08:35:03.013Z,7.13
2023-03-31T08:37:32.723Z,6.93
2023-03-31T08:40:00.417Z,7.53
2023-03-31T08:42:41.761Z,6.77
2023-03-31T08:45:32.097Z,7.47
2023-03-31T08:48:07.940Z,6.90
2023-03-31T08:50:36.248Z,6.30
2023-03-31T08:53:08.934Z,6.80
2023-03-31T08:55:52.662Z,7.00
2023-03-31T08:58:32.175Z,6.10
2023-03-31T09:01:08.967Z,6.37
2023-03-31T09:03:52.766Z,6.37
2023-03-31T09:06:24.818Z,7.40
2023-03-31T09:08:52.717Z,7.00
2023-03-31T09:11:29.087Z,6.87
2023-03-31T09:14:19.113Z,6.93
2023-03-31T09:16:55.585Z,7.00
2023-03-31T09:19:41.604Z,5.83
2023-03-31T09:22:32.131Z,5.60
2023-03-31T09:24:59.629Z,5.47
2023-03-31T09:27:28.462Z,5.70
2023-03-31T09:30:00.486Z,5.33
2023-03-31T09:32:31.766Z,5.33
2023-03-31T09:35:17.510Z,5.37
2023-03-31T09:37:44.813Z,4.90
2023-03-31T09:40:16.789Z,4.70
2023-03-31T09:42:44.064Z,4.27
2023-03-31T09:45:18.564Z,4.90
2023-03-31T09:47:47.858Z,5.00
2023-03-31T09:50:16.541Z,3.87
2023-03-31T09:52:53.914Z,4.20
2023-03-31T09:55:40.520Z,5.20
2023-03-31T09:58:08.932Z,4.30
2023-03-31T10:00:41.603Z,4.17
2023-03-31T10:03:12.316Z,5.07
2023-03-31T10:05:42.726Z,4.07
2023-03-31T10:08:22.085Z,3.90
2023-03-31T10:10:51.140Z,4.10
2023-03-31T10:13:20.932Z,3.90
2023-03-31T10:15:48.188Z,3.73
2023-03-31T10:18:17.348Z,3.73
2023-03-31T10:20:46.478Z,3.80
2023-03-31T10:23:18.156Z,3.63
2023-03-31T10:25:47.350Z,5.10
2023-03-31T10:28:20.478Z,4.57
2023-03-31T10:30:52.345Z,4.47
2023-03-31T10:33:23.430Z,4.43
2023-03-31T10:36:00.953Z,4.30
2023-03-31T10:38:30.217Z,7.93
2023-03-31T10:40:59.534Z,3.40
2023-03-31T10:43:30.648Z,2.00
2023-03-31T10:46:00.770Z,2.20
2023-03-31T10:48:32.257Z,2.20
2023-03-31T10:51:01.465Z,2.50
2023-03-31T10:53:28.745Z,2.43
2023-03-31T10:56:10.986Z,2.40
2023-03-31T10:58:58.117Z,2.47
2023-03-31T11:01:34.936Z,3.33
2023-03-31T11:04:21.437Z,1.80
2023-03-31T11:07:07.463Z,2.17
2023-03-31T11:09:43.547Z,2.00
2023-03-31T11:12:13.804Z,3.70
2023-03-31T11:14:50.890Z,1.80
2023-03-31T11:17:25.668Z,1.40
2023-03-31T11:19:59.775Z,1.90
2023-03-31T11:22:46.711Z,1.90
2023-03-31T11:25:23.020Z,2.77
2023-03-31T11:28:09.169Z,2.33
2023-03-31T11:30:42.475Z,2.23
2023-03-31T11:33:18.817Z,2.00
2023-03-31T11:35:47.580Z,2.40
2023-03-31T11:38:29.281Z,1.90
2023-03-31T11:41:00.375Z,2.30
2023-03-31T11:43:28.460Z,2.60
2023-03-31T11:46:18.020Z,2.87
2023-03-31T11:48:45.892Z,2.63
2023-03-31T11:51:31.475Z,3.40
2023-03-31T11:54:01.091Z,2.60
2023-03-31T11:56:32.544Z,2.90
2023-03-31T11:59:01.198Z,3.40
2023-03-31T12:01:32.109Z,3.03
2023-03-31T12:03:59.261Z,3.60
2023-03-31T12:06:30.897Z,4.00
2023-03-31T12:09:17.169Z,4.03
2023-03-31T12:11:58.423Z,3.60
2023-03-31T12:14:30.122Z,3.97
2023-03-31T12:17:02.750Z,5.30
2023-03-31T12:19:41.164Z,5.30
2023-03-31T12:22:15.689Z,4.13
2023-03-31T12:24:43.216Z,3.00
2023-03-31T12:27:18.985Z,3.10
2023-03-31T12:29:49.376Z,3.90
2023-03-31T12:32:21.567Z,3.17
2023-03-31T12:34:56.873Z,4.00
2023-03-31T12:37:34.938Z,3.90
2023-03-31T12:40:21.487Z,4.23
2023-03-31T12:42:59.379Z,3.03
2023-03-31T12:45:31.214Z,2.60
2023-03-31T12:47:58.534Z,3.07
2023-03-31T12:50:44.819Z,3.00
2023-03-31T12:53:32.364Z,3.23
2023-03-31T12:56:00.597Z,3.17
2023-03-31T12:58:32.473Z,3.43
2023-03-31T13:01:06.849Z,2.37
2023-03-31T13:03:34.510Z,2.67
2023-03-31T13:06:02.062Z,2.43
2023-03-31T13:08:48.337Z,2.83
2023-03-31T13:11:15.588Z,3.30
2023-03-31T13:14:03.053Z,3.10
2023-03-31T13:16:31.270Z,3.77
2023-03-31T13:18:59.934Z,2.80
2023-03-31T13:21:30.975Z,2.67
2023-03-31T13:24:02.734Z,2.63
2023-03-31T13:26:35.806Z,2.60
2023-03-31T13:29:16.236Z,3.00
2023-03-31T13:32:01.904Z,2.90
2023-03-31T13:34:32.840Z,2.40
2023-03-31T13:37:15.530Z,2.87
2023-03-31T13:39:43.469Z,3.20
2023-03-31T13:42:30.890Z,2.63
2023-03-31T13:45:05.450Z,2.40
2023-03-31T13:47:40.911Z,1.97
2023-03-31T13:50:20.517Z,1.70
2023-03-31T13:53:03.740Z,2.00
2023-03-31T13:55:46.912Z,2.00
2023-03-31T13:58:32.757Z,1.47
2023-03-31T14:01:08.210Z,1.40
2023-03-31T14:03:47.035Z,1.60
2023-03-31T14:06:24.120Z,1.33
2023-03-31T14:08:57.526Z,2.37
2023-03-31T14:11:29.347Z,1.40
2023-03-31T14:14:00.546Z,1.57
2023-03-31T14:16:32.558Z,1.43
2023-03-31T14:21:53.347Z,1.90
2023-03-31T14:24:42.735Z,4.87
2023-03-31T14:27:29.208Z,1.70
2023-03-31T14:30:00.240Z,2.07
2023-03-31T14:32:38.572Z,1.70
2023-03-31T14:35:15.314Z,1.77
2023-03-31T14:37:42.541Z,1.77
2023-03-31T14:40:15.205Z,1.70
2023-03-31T14:42:49.440Z,1.80
2023-03-31T14:45:25.130Z,1.83
2023-03-31T14:47:59.694Z,3.13
2023-03-31T14:50:49.828Z,1.80
2023-03-31T14:53:17.930Z,1.70
2023-03-31T14:58:24.001Z,1.97
2023-03-31T15:00:51.686Z,2.10
2023-03-31T15:03:21.120Z,2.10
2023-03-31T15:05:50.393Z,2.77
2023-03-31T15:08:23.200Z,1.93
2023-03-31T15:10:58.972Z,1.87
2023-03-31T15:13:33.171Z,2.03
2023-03-31T15:16:00.785Z,2.10
2023-03-31T15:18:28.286Z,2.67
2023-03-31T15:20:55.538Z,2.87
2023-03-31T15:23:28.270Z,2.73
2023-03-31T15:25:58.264Z,3.53
2023-03-31T15:28:28.885Z,1.93
2023-03-31T15:31:09.534Z,2.30
2023-03-31T15:33:42.185Z,2.57
2023-03-31T15:36:30.663Z,2.20
2023-03-31T15:38:59.487Z,2.67
2023-03-31T15:41:29.990Z,4.27
2023-03-31T15:44:08.747Z,2.90
2023-03-31T15:46:50.203Z,3.97
2023-03-31T15:49:21.491Z,13.63
2023-03-31T15:51:48.855Z,3.50
2023-03-31T15:54:36.839Z,3.53
2023-03-31T15:57:09.493Z,2.57
2023-03-31T15:59:56.063Z,2.90
2023-03-31T16:02:25.002Z,2.17
2023-03-31T16:04:56.447Z,6.30
2023-03-31T16:07:35.458Z,2.80
2023-03-31T16:10:23.198Z,5.67
2023-03-31T16:12:54.507Z,3.57
2023-03-31T16:15:25.098Z,3.87
2023-03-31T16:17:54.942Z,5.80
2023-03-31T16:20:26.574Z,2.60
2023-03-31T16:22:55.517Z,2.63
2023-03-31T16:25:23.960Z,2.10
2023-03-31T16:27:54.917Z,1.80
2023-03-31T16:30:23.510Z,2.60
2023-03-31T16:33:04.390Z,2.10
2023-03-31T16:35:34.365Z,2.20
2023-03-31T16:38:01.851Z,1.80
2023-03-31T16:40:32.768Z,2.90
2023-03-31T16:43:19.792Z,2.43
2023-03-31T16:45:52.854Z,2.57
2023-03-31T16:48:23.937Z,3.60
2023-03-31T16:50:55.565Z,2.10
2023-03-31T16:53:24.565Z,2.20
2023-03-31T16:55:51.823Z,2.43
2023-03-31T16:58:19.095Z,2.63
2023-03-31T17:00:46.603Z,2.20
2023-03-31T17:03:15.522Z,2.53
2023-03-31T17:05:44.195Z,2.70
2023-03-31T17:08:12.495Z,2.30
2023-03-31T17:10:40.293Z,2.30
2023-03-31T17:13:07.898Z,2.20
2023-03-31T17:15:38.759Z,2.63
2023-03-31T17:18:07.250Z,2.93
2023-03-31T17:20:34.764Z,4.43
2023-03-31T17:23:04.517Z,3.50
2023-03-31T17:25:32.094Z,2.57
2023-03-31T17:28:00.589Z,2.53
2023-03-31T17:30:28.036Z,2.30
2023-03-31T17:32:57.306Z,2.70
2023-03-31T17:35:25.062Z,2.93
2023-03-31T17:37:55.746Z,2.90
2023-03-31T17:40:25.838Z,2.60
2023-03-31T17:42:54.107Z,2.63
2023-03-31T17:45:21.608Z,3.20
2023-03-31T17:47:49.332Z,2.70
2023-03-31T17:50:16.701Z,2.20
2023-03-31T17:52:44.891Z,2.40
2023-03-31T17:55:12.478Z,5.17
2023-03-31T17:57:40.529Z,3.80
2023-03-31T18:00:09.958Z,2.10
2023-03-31T18:02:37.955Z,2.57
2023-03-31T18:05:06.734Z,2.60
2023-03-31T18:07:34.232Z,2.70
2023-03-31T18:10:02.840Z,2.83
2023-03-31T18:12:31.005Z,2.77
2023-03-31T18:14:58.203Z,3.83
2023-03-31T18:17:25.514Z,2.23
2023-03-31T18:19:52.710Z,2.33
2023-03-31T18:22:19.868Z,2.60
2023-03-31T18:24:47.279Z,2.90
2023-03-31T18:27:14.476Z,3.13
2023-03-31T18:29:41.722Z,3.37
2023-03-31T18:32:09.902Z,2.43
2023-03-31T18:34:38.189Z,2.60
2023-03-31T18:37:05.595Z,2.70
2023-03-31T18:39:32.922Z,2.60
2023-03-31T18:42:00.136Z,3.20
2023-03-31T18:44:27.329Z,2.97
2023-03-31T18:46:54.578Z,2.67
2023-03-31T18:49:24.490Z,2.70
2023-03-31T18:51:54.012Z,2.70
2023-03-31T18:54:22.916Z,2.73
2023-03-31T18:56:51.615Z,3.17
2023-03-31T18:59:18.981Z,3.50
2023-03-31T19:01:46.837Z,2.80
2023-03-31T19:04:14.184Z,3.60
2023-03-31T19:06:41.481Z,3.50
2023-03-31T19:09:08.729Z,3.37
2023-03-31T19:11:36.125Z,3.40
2023-03-31T19:14:03.297Z,2.70
2023-03-31T19:16:30.891Z,2.60
2023-03-31T19:18:58.313Z,2.77
2023-03-31T19:21:25.594Z,2.30
2023-03-31T19:23:52.846Z,2.50
2023-03-31T19:26:20.098Z,2.30
2023-03-31T19:28:48.213Z,2.60
2023-03-31T19:31:15.720Z,2.67
2023-03-31T19:33:44.001Z,2.20
2023-03-31T19:36:11.248Z,2.00
2023-03-31T19:38:38.469Z,2.50
2023-03-31T19:41:06.325Z,3.27
2023-03-31T19:43:33.680Z,2.50
2023-03-31T19:46:01.438Z,2.20
2023-03-31T19:48:33.365Z,2.57
2023-03-31T19:51:03.861Z,2.13
2023-03-31T19:53:31.905Z,2.60
2023-03-31T19:56:03.081Z,2.20
2023-03-31T19:58:33.075Z,2.70
2023-03-31T20:01:00.401Z,2.67
2023-03-31T20:03:29.138Z,2.13
2023-03-31T20:06:07.041Z,2.30
2023-03-31T20:08:36.506Z,2.10
2023-03-31T20:11:05.425Z,2.17
2023-03-31T20:13:35.551Z,1.90
2023-03-31T20:16:05.778Z,2.20
2023-03-31T20:18:33.355Z,2.50
2023-03-31T20:21:20.287Z,2.03
2023-03-31T20:23:47.784Z,2.00
2023-03-31T20:26:18.652Z,2.53
2023-03-31T20:28:46.997Z,2.07
2023-03-31T20:31:14.212Z,2.30
2023-03-31T20:33:42.176Z,1.90
2023-03-31T20:36:13.574Z,2.10
2023-03-31T20:38:41.694Z,2.10
2023-03-31T20:41:10.520Z,2.07
2023-03-31T20:43:37.827Z,2.77
2023-03-31T20:46:06.309Z,2.07
2023-03-31T20:48:42.058Z,2.13
2023-03-31T20:51:10.821Z,2.30
2023-03-31T20:53:44.004Z,2.70
2023-03-31T20:56:12.072Z,2.13
2023-03-31T20:58:41.107Z,1.70
2023-03-31T21:01:09.777Z,1.90
2023-03-31T21:03:39.830Z,2.30
2023-03-31T21:06:11.342Z,2.00
2023-03-31T21:08:39.904Z,2.17
2023-03-31T21:11:07.255Z,2.27
2023-03-31T21:13:34.754Z,2.00
2023-03-31T21:16:04.274Z,1.90
2023-03-31T21:18:32.282Z,2.20
2023-03-31T21:21:00.977Z,1.90
2023-03-31T21:23:29.231Z,2.67
2023-03-31T21:25:57.993Z,2.70
2023-03-31T21:28:27.482Z,1.83
2023-03-31T21:30:55.878Z,1.83
2023-03-31T21:33:24.076Z,1.70
2023-03-31T21:35:54.561Z,2.00
2023-03-31T21:38:21.767Z,2.13
2023-03-31T21:40:51.516Z,2.50
2023-03-31T21:43:20.079Z,2.30
2023-03-31T21:45:48.278Z,2.13
2023-03-31T21:48:15.594Z,2.20
2023-03-31T21:50:43.227Z,1.73
2023-03-31T21:53:11.550Z,2.10
2023-03-31T21:55:40.003Z,1.80
2023-03-31T21:58:07.159Z,2.20
2023-03-31T22:00:35.946Z,2.63
2023-03-31T22:03:22.197Z,2.30
2023-03-31T22:05:51.422Z,2.47
2023-03-31T22:08:18.615Z,2.47
2023-03-31T22:10:49.233Z,2.17
2023-03-31T22:13:16.946Z,2.33
2023-03-31T22:15:45.008Z,2.10
2023-03-31T22:18:12.269Z,2.50
2023-03-31T22:20:40.901Z,2.67
2023-03-31T22:23:08.100Z,1.90
2023-03-31T22:25:36.717Z,1.90
2023-03-31T22:28:06.077Z,2.33
2023-03-31T22:30:34.499Z,2.47
2023-03-31T22:33:02.225Z,2.20
2023-03-31T22:35:30.838Z,2.17
2023-03-31T22:37:58.299Z,1.90
2023-03-31T22:40:25.465Z,2.00
2023-03-31T22:42:54.707Z,2.30
2023-03-31T22:45:22.010Z,2.30
2023-03-31T22:47:49.340Z,2.47
2023-03-31T22:50:17.635Z,2.13
2023-03-31T22:52:46.018Z,2.43
2023-03-31T22:55:13.365Z,2.10
2023-03-31T22:57:40.812Z,2.40
2023-03-31T23:00:09.652Z,2.20
2023-03-31T23:02:37.096Z,2.40
2023-03-31T23:05:04.780Z,2.40
2023-03-31T23:07:35.017Z,4.00
2023-03-31T23:10:03.525Z,2.50
2023-03-31T23:12:36.875Z,2.50
2023-03-31T23:15:05.245Z,2.20
2023-03-31T23:17:32.648Z,2.23
2023-03-31T23:20:00.739Z,2.33
2023-03-31T23:22:28.365Z,2.63
2023-03-31T23:24:56.604Z,2.53
2023-03-31T23:27:24.435Z,2.13
2023-03-31T23:29:52.082Z,1.93
2023-03-31T23:32:19.624Z,2.10
2023-03-31T23:34:47.238Z,2.40
2023-03-31T23:37:15.667Z,3.03
2023-03-31T23:39:43.075Z,2.27
2023-03-31T23:42:16.232Z,3.27
2023-03-31T23:44:44.219Z,2.47
2023-03-31T23:47:11.740Z,2.30
2023-03-31T23:49:39.141Z,2.93
2023-03-31T23:52:06.509Z,2.70
2023-03-31T23:54:34.062Z,2.50
2023-03-31T23:57:02.928Z,2.63
2023-03-31T23:59:30.508Z,2.73
